Time;durP1;ratioP1;P1;durP2;ratioP2;P2;SDS_P1;SDS_P2;PMS_P1;PMS_P2;Temp;Humidity;BMP_temperature;BMP_pressure;BME280_temperature;BME280_humidity;BME280_pressure;Samples;Min_cycle;Max_cycle;Signal;HPM_P1;HPM_P2
2023/07/20 00:02:10;;;;;;;6.63;5.05;;;14.40;99.90;;;;;;5048575;28;20040;-71
2023/07/20 00:04:36;;;;;;;7.20;5.65;;;14.30;99.90;;;;;;5067876;28;20040;-71
2023/07/20 00:07:03;;;;;;;8.82;5.53;;;14.30;99.90;;;;;;5068236;28;20039;-71
2023/07/20 00:09:29;;;;;;;10.18;6.47;;;14.40;99.90;;;;;;5067264;28;20044;-70
2023/07/20 00:11:54;;;;;;;7.32;5.60;;;14.30;99.90;;;;;;5068611;28;20059;-71
2023/07/20 00:14:20;;;;;;;7.25;5.43;;;14.20;99.90;;;;;;5065126;28;20037;-71
2023/07/20 00:16:46;;;;;;;8.73;5.40;;;14.20;99.90;;;;;;5068585;28;20102;-72
2023/07/20 00:19:12;;;;;;;7.18;5.20;;;14.30;99.90;;;;;;5064215;28;20044;-70
2023/07/20 00:21:40;;;;;;;7.63;5.80;;;14.30;99.90;;;;;;5049196;28;20147;-70
2023/07/20 00:24:06;;;;;;;6.82;5.30;;;14.30;99.90;;;;;;5047084;28;20113;-71
2023/07/20 00:26:32;;;;;;;7.85;4.90;;;14.30;99.90;;;;;;5058093;28;20123;-71
2023/07/20 00:28:57;;;;;;;6.75;4.75;;;14.30;99.90;;;;;;5068053;28;20076;-71
2023/07/20 00:31:23;;;;;;;6.88;4.63;;;14.20;99.90;;;;;;5064481;28;20601;-71
2023/07/20 00:33:49;;;;;;;5.25;4.28;;;14.30;99.90;;;;;;5064637;28;20032;-70
2023/07/20 00:36:14;;;;;;;5.93;3.83;;;14.20;99.90;;;;;;5068326;28;20410;-71
2023/07/20 00:38:40;;;;;;;5.07;3.70;;;14.20;99.90;;;;;;5065905;28;20170;-71
2023/07/20 00:41:06;;;;;;;4.90;3.53;;;14.10;99.90;;;;;;5066801;28;20341;-71
2023/07/20 00:43:31;;;;;;;4.88;3.90;;;14.10;99.90;;;;;;5064191;28;20058;-70
2023/07/20 00:45:57;;;;;;;4.72;3.38;;;14.00;99.90;;;;;;5062241;28;20055;-70
2023/07/20 00:48:23;;;;;;;6.32;3.30;;;14.00;99.90;;;;;;5043227;28;20048;-71
2023/07/20 00:50:50;;;;;;;4.53;2.80;;;14.00;99.90;;;;;;5051233;28;20039;-71
2023/07/20 00:53:16;;;;;;;2.75;2.47;;;13.90;99.90;;;;;;5068859;28;20138;-70
2023/07/20 00:55:42;;;;;;;3.55;2.63;;;13.90;99.90;;;;;;5065358;28;20037;-69
2023/07/20 00:58:08;;;;;;;3.78;2.17;;;13.90;99.90;;;;;;5066921;28;20413;-70
2023/07/20 01:00:34;;;;;;;3.78;2.40;;;13.90;99.90;;;;;;5064336;28;20505;-70
2023/07/20 01:02:59;;;;;;;4.53;2.50;;;13.80;99.90;;;;;;5063513;28;20052;-70
2023/07/20 01:05:42;;;;;;;4.05;2.17;;;13.70;99.90;;;;;;5064084;28;20087;-70
2023/07/20 01:08:15;;;;;;;3.45;2.22;;;13.70;99.90;;;;;;5064402;28;20428;-71
2023/07/20 01:10:46;;;;;;;3.00;2.58;;;13.70;99.90;;;;;;5065079;28;20379;-70
2023/07/20 01:13:14;;;;;;;3.38;2.35;;;13.70;99.90;;;;;;5066415;28;20040;-69
2023/07/20 01:15:40;;;;;;;3.50;2.60;;;13.70;99.90;;;;;;5063799;28;20184;-71
2023/07/20 01:18:06;;;;;;;4.15;2.30;;;13.70;99.90;;;;;;5066984;28;20590;-70
2023/07/20 01:20:33;;;;;;;3.28;2.30;;;13.60;99.90;;;;;;5055904;28;20051;-71
2023/07/20 01:23:33;;;;;;;4.20;2.17;;;13.60;99.90;;;;;;5048283;28;20041;-70
2023/07/20 01:26:05;;;;;;;1.92;1.73;;;13.50;99.90;;;;;;5055822;28;20044;-71
2023/07/20 01:28:39;;;;;;;3.17;1.90;;;13.50;99.90;;;;;;5062823;28;20060;-70
2023/07/20 01:31:26;;;;;;;2.17;1.75;;;13.50;99.90;;;;;;5064385;28;20418;-68
2023/07/20 01:33:58;;;;;;;2.45;1.63;;;13.40;99.90;;;;;;5062993;28;20128;-68
2023/07/20 01:36:26;;;;;;;2.10;1.73;;;13.30;99.90;;;;;;5063339;28;20033;-68
2023/07/20 01:38:52;;;;;;;2.08;1.60;;;13.30;99.90;;;;;;5065326;28;20481;-69
2023/07/20 01:41:19;;;;;;;3.03;1.63;;;13.20;99.90;;;;;;5065045;28;20055;-67
2023/07/20 01:43:44;;;;;;;2.90;1.70;;;13.20;99.90;;;;;;5066058;28;20048;-68
2023/07/20 01:46:10;;;;;;;2.17;1.75;;;13.10;99.90;;;;;;5065478;28;20059;-68
2023/07/20 01:48:38;;;;;;;3.40;1.85;;;13.00;99.90;;;;;;5061867;28;20399;-68
2023/07/20 01:51:04;;;;;;;2.15;1.80;;;13.00;99.90;;;;;;5048771;28;20037;-68
2023/07/20 01:53:30;;;;;;;2.17;1.98;;;12.90;99.90;;;;;;5067144;28;20770;-67
2023/07/20 01:55:57;;;;;;;2.67;2.38;;;12.90;99.90;;;;;;5053034;28;20059;-68
2023/07/20 01:58:23;;;;;;;2.88;2.42;;;12.90;99.90;;;;;;5067421;28;20044;-69
2023/07/20 02:00:49;;;;;;;5.03;2.55;;;12.90;99.90;;;;;;5066987;28;20040;-68
2023/07/20 02:03:14;;;;;;;5.35;2.90;;;12.80;99.90;;;;;;5069873;28;20510;-68
2023/07/20 02:05:42;;;;;;;7.53;3.15;;;12.80;99.90;;;;;;5064920;28;20737;-69
2023/07/20 02:08:08;;;;;;;6.13;3.45;;;12.80;99.90;;;;;;5069691;28;20047;-69
2023/07/20 02:10:35;;;;;;;6.30;3.38;;;12.80;99.90;;;;;;5066933;28;20535;-68
2023/07/20 02:13:01;;;;;;;5.38;3.38;;;12.90;99.90;;;;;;5068761;28;20075;-68
2023/07/20 02:15:27;;;;;;;4.25;3.28;;;12.90;99.90;;;;;;5069200;28;20064;-68
2023/07/20 02:17:53;;;;;;;5.22;3.55;;;12.80;99.90;;;;;;5066007;28;20064;-67
2023/07/20 02:20:19;;;;;;;7.05;3.45;;;12.80;99.90;;;;;;5050525;28;20044;-68
2023/07/20 02:22:45;;;;;;;5.30;3.40;;;12.80;99.90;;;;;;5066837;28;20348;-68
2023/07/20 02:25:11;;;;;;;4.82;3.50;;;12.80;99.90;;;;;;5048859;28;20045;-68
2023/07/20 02:27:37;;;;;;;4.15;3.35;;;12.80;99.90;;;;;;5069015;28;20040;-68
2023/07/20 02:30:03;;;;;;;7.25;3.75;;;12.70;99.90;;;;;;5049183;28;20482;-68
2023/07/20 02:32:30;;;;;;;3.90;3.40;;;12.70;99.90;;;;;;5069513;28;20603;-68
2023/07/20 02:34:56;;;;;;;5.28;3.67;;;12.70;99.90;;;;;;5065641;28;20044;-68
2023/07/20 02:37:21;;;;;;;4.57;3.60;;;12.60;99.90;;;;;;5067256;28;20036;-68
2023/07/20 02:39:47;;;;;;;6.32;4.05;;;12.60;99.90;;;;;;5049470;28;20536;-68
2023/07/20 02:42:13;;;;;;;7.30;4.30;;;12.60;99.90;;;;;;5069612;28;20068;-68
2023/07/20 02:44:38;;;;;;;8.50;3.97;;;12.60;99.90;;;;;;5067758;28;20402;-68
2023/07/20 02:47:04;;;;;;;6.63;4.40;;;12.60;99.90;;;;;;5066565;28;20103;-68
2023/07/20 02:49:30;;;;;;;8.02;4.68;;;12.50;99.90;;;;;;5066623;28;20116;-68
2023/07/20 02:51:55;;;;;;;6.93;4.60;;;12.50;99.90;;;;;;5049092;28;20395;-68
2023/07/20 02:54:21;;;;;;;7.00;4.75;;;12.40;99.90;;;;;;5046752;28;20058;-67
2023/07/20 02:56:46;;;;;;;6.57;4.57;;;12.40;99.90;;;;;;5048207;28;20076;-68
2023/07/20 02:59:12;;;;;;;6.40;4.85;;;12.40;99.90;;;;;;5047279;28;20502;-68
2023/07/20 03:01:38;;;;;;;6.88;4.57;;;12.30;99.90;;;;;;5046980;28;20072;-68
2023/07/20 03:04:03;;;;;;;7.75;4.85;;;12.30;99.90;;;;;;5027879;28;20032;-68
2023/07/20 03:06:29;;;;;;;6.68;4.90;;;12.30;99.90;;;;;;5047117;28;20051;-68
2023/07/20 03:08:55;;;;;;;7.18;5.30;;;12.30;99.90;;;;;;5031021;28;20033;-68
2023/07/20 03:11:21;;;;;;;7.65;5.40;;;12.40;99.90;;;;;;5045094;28;20083;-68
2023/07/20 03:13:47;;;;;;;7.40;5.35;;;12.30;99.90;;;;;;5040869;28;20102;-67
2023/07/20 03:16:17;;;;;;;7.32;5.30;;;12.40;99.90;;;;;;5046762;28;20041;-68
2023/07/20 03:18:43;;;;;;;6.97;5.00;;;12.30;99.90;;;;;;5046245;28;20553;-70
2023/07/20 03:21:11;;;;;;;8.27;5.32;;;12.30;99.90;;;;;;5061115;28;20118;-70
2023/07/20 03:23:37;;;;;;;9.52;5.97;;;12.30;99.90;;;;;;5065791;28;20146;-71
2023/07/20 03:26:03;;;;;;;7.00;4.85;;;12.20;99.90;;;;;;5066478;28;20045;-70
2023/07/20 03:28:29;;;;;;;6.53;4.97;;;12.10;99.90;;;;;;5065553;28;20359;-70
2023/07/20 03:30:58;;;;;;;7.28;4.80;;;12.10;99.90;;;;;;5065639;28;20230;-71
2023/07/20 03:33:29;;;;;;;7.75;4.55;;;12.10;99.90;;;;;;5066486;28;20090;-70
2023/07/20 03:35:55;;;;;;;8.50;5.00;;;12.00;99.90;;;;;;5048240;28;20052;-71
2023/07/20 03:38:21;;;;;;;7.13;4.97;;;12.00;99.90;;;;;;5050430;28;20055;-70
2023/07/20 03:40:57;;;;;;;7.13;4.97;;;12.00;99.90;;;;;;5066766;28;20051;-71
2023/07/20 03:43:24;;;;;;;8.70;5.35;;;11.90;99.90;;;;;;5064766;28;20052;-68
2023/07/20 03:45:50;;;;;;;7.78;4.68;;;11.90;99.90;;;;;;5068638;28;20199;-68
2023/07/20 03:48:17;;;;;;;7.43;5.60;;;11.90;99.90;;;;;;5064007;28;20436;-69
2023/07/20 03:50:48;;;;;;;9.40;5.90;;;11.90;99.90;;;;;;5066954;28;20495;-68
2023/07/20 03:53:14;;;;;;;8.13;5.10;;;11.90;99.90;;;;;;5049167;28;20044;-68
2023/07/20 03:55:41;;;;;;;8.30;5.38;;;11.90;99.90;;;;;;5065964;28;20047;-67
2023/07/20 03:58:07;;;;;;;6.90;5.07;;;11.90;99.90;;;;;;5067514;28;20056;-68
2023/07/20 04:00:34;;;;;;;7.40;5.05;;;11.80;99.90;;;;;;5063054;28;20036;-68
2023/07/20 04:03:03;;;;;;;8.50;5.55;;;11.80;99.90;;;;;;5045473;28;20127;-68
2023/07/20 04:05:29;;;;;;;9.02;5.35;;;11.90;99.90;;;;;;5044566;28;20037;-68
2023/07/20 04:07:55;;;;;;;8.27;5.03;;;11.80;99.90;;;;;;5045475;28;20168;-68
2023/07/20 04:10:20;;;;;;;8.43;5.43;;;11.90;99.90;;;;;;5047342;28;20039;-68
2023/07/20 04:12:49;;;;;;;12.55;6.10;;;11.90;99.90;;;;;;5045738;28;20231;-68
2023/07/20 04:15:14;;;;;;;7.43;5.65;;;11.90;99.90;;;;;;5046872;28;20119;-69
2023/07/20 04:17:40;;;;;;;8.68;5.60;;;11.90;99.90;;;;;;5043902;28;20136;-68
2023/07/20 04:20:07;;;;;;;7.57;5.20;;;11.90;99.90;;;;;;5057402;28;20433;-67
2023/07/20 04:22:32;;;;;;;10.63;5.80;;;12.00;99.90;;;;;;5046675;28;20064;-68
2023/07/20 04:24:58;;;;;;;7.63;5.32;;;12.00;99.90;;;;;;5044243;28;20036;-67
2023/07/20 04:27:24;;;;;;;8.95;5.65;;;12.00;99.90;;;;;;5068865;28;20041;-67
2023/07/20 04:29:49;;;;;;;9.30;6.22;;;12.10;99.90;;;;;;5066270;28;20051;-67
2023/07/20 04:32:15;;;;;;;7.78;6.00;;;12.00;99.90;;;;;;5064696;28;20086;-67
2023/07/20 04:34:41;;;;;;;8.90;5.57;;;12.00;99.90;;;;;;5063756;28;20390;-68
2023/07/20 04:37:07;;;;;;;8.52;6.05;;;12.10;99.90;;;;;;5063512;28;20177;-69
2023/07/20 04:39:33;;;;;;;8.35;5.25;;;12.10;99.90;;;;;;5067689;28;20040;-68
2023/07/20 04:41:58;;;;;;;7.78;5.50;;;12.20;99.90;;;;;;5065403;28;20491;-68
2023/07/20 04:44:24;;;;;;;7.30;5.40;;;12.20;99.90;;;;;;5066545;28;20407;-67
2023/07/20 04:46:50;;;;;;;7.30;5.65;;;12.20;99.90;;;;;;5049697;28;20204;-68
2023/07/20 04:49:15;;;;;;;6.22;4.72;;;12.30;99.90;;;;;;5044991;28;20325;-69
2023/07/20 04:51:41;;;;;;;6.85;4.78;;;12.20;99.90;;;;;;5049397;28;20123;-68
2023/07/20 04:54:06;;;;;;;7.45;5.07;;;12.30;99.90;;;;;;5045235;28;20044;-68
2023/07/20 04:56:33;;;;;;;6.72;4.38;;;12.30;99.90;;;;;;5047310;28;20115;-68
2023/07/20 04:58:58;;;;;;;6.13;4.43;;;12.30;99.90;;;;;;5045647;28;20496;-68
2023/07/20 05:01:24;;;;;;;7.85;4.40;;;12.40;99.90;;;;;;5043303;28;20055;-68
2023/07/20 05:03:50;;;;;;;6.57;4.63;;;12.40;99.90;;;;;;5046628;28;20082;-68
2023/07/20 05:06:15;;;;;;;7.68;4.82;;;12.40;99.90;;;;;;5043459;28;20079;-68
2023/07/20 05:08:41;;;;;;;8.10;4.70;;;12.50;99.90;;;;;;5045355;28;20056;-68
2023/07/20 05:11:07;;;;;;;6.53;4.80;;;12.60;99.90;;;;;;5043839;28;20037;-68
2023/07/20 05:13:33;;;;;;;5.43;4.10;;;12.60;99.90;;;;;;5043110;28;20064;-68
2023/07/20 05:15:58;;;;;;;6.53;4.43;;;12.70;99.90;;;;;;5046012;28;20127;-68
2023/07/20 05:18:24;;;;;;;7.03;4.32;;;12.90;99.90;;;;;;5042150;28;20109;-67
2023/07/20 05:20:51;;;;;;;6.82;3.70;;;12.90;99.90;;;;;;5044282;28;20097;-67
2023/07/20 05:23:19;;;;;;;5.72;3.88;;;12.90;99.90;;;;;;5044798;28;20504;-68
2023/07/20 05:25:45;;;;;;;5.25;3.63;;;13.00;99.90;;;;;;5051238;28;20075;-66
2023/07/20 05:28:11;;;;;;;7.88;3.53;;;13.10;99.90;;;;;;5066164;28;20440;-70
2023/07/20 05:30:36;;;;;;;8.82;3.08;;;13.20;99.90;;;;;;5048689;28;20044;-70
2023/07/20 05:33:02;;;;;;;3.70;3.15;;;13.30;99.90;;;;;;5049779;28;20114;-70
2023/07/20 05:35:27;;;;;;;4.45;3.00;;;13.40;99.90;;;;;;5046958;28;20060;-70
2023/07/20 05:37:53;;;;;;;4.32;2.60;;;13.60;99.90;;;;;;5046466;28;20123;-71
2023/07/20 05:40:19;;;;;;;6.00;3.15;;;13.70;99.90;;;;;;5047190;28;20109;-67
2023/07/20 05:42:51;;;;;;;3.38;2.75;;;13.80;99.90;;;;;;5025987;28;20037;-67
2023/07/20 05:45:17;;;;;;;3.50;2.88;;;13.90;99.90;;;;;;5061494;28;20345;-67
2023/07/20 05:47:43;;;;;;;3.47;2.60;;;14.00;99.90;;;;;;5042686;28;20147;-68
2023/07/20 05:50:09;;;;;;;4.55;2.60;;;14.00;99.90;;;;;;5044652;28;20065;-67
2023/07/20 05:52:35;;;;;;;4.47;2.20;;;14.10;99.90;;;;;;5051781;28;20040;-67
2023/07/20 05:55:00;;;;;;;3.08;2.25;;;14.10;99.90;;;;;;5062442;28;20049;-67
2023/07/20 05:57:26;;;;;;;4.55;2.28;;;14.30;99.90;;;;;;5048719;28;20519;-66
2023/07/20 05:59:51;;;;;;;3.38;2.13;;;14.60;99.90;;;;;;5064287;28;20049;-67
2023/07/20 06:02:17;;;;;;;6.13;1.90;;;15.00;99.90;;;;;;5051500;28;20029;-65
2023/07/20 06:04:42;;;;;;;3.88;1.65;;;15.10;99.90;;;;;;5044663;28;20045;-68
2023/07/20 06:07:08;;;;;;;3.85;2.17;;;15.20;99.90;;;;;;5043985;28;20472;-68
2023/07/20 06:09:34;;;;;;;2.20;1.90;;;15.30;99.90;;;;;;5057204;28;20107;-67
2023/07/20 06:12:00;;;;;;;2.55;1.58;;;15.40;99.90;;;;;;5064647;28;20078;-67
2023/07/20 06:14:25;;;;;;;2.03;1.42;;;15.60;99.90;;;;;;5065344;28;20033;-67
2023/07/20 06:16:51;;;;;;;4.15;1.60;;;15.70;99.90;;;;;;5065084;28;20032;-67
2023/07/20 06:19:17;;;;;;;3.13;1.48;;;15.80;99.90;;;;;;5058075;28;20060;-66
2023/07/20 06:21:43;;;;;;;3.22;1.40;;;15.80;99.90;;;;;;5046188;28;20115;-67
2023/07/20 06:24:09;;;;;;;2.97;1.10;;;15.80;99.90;;;;;;5063119;28;20123;-67
2023/07/20 06:26:38;;;;;;;3.17;1.40;;;15.70;99.90;;;;;;5065597;28;20504;-67
2023/07/20 06:29:06;;;;;;;3.20;1.40;;;15.50;99.90;;;;;;5063239;28;20080;-66
2023/07/20 06:31:32;;;;;;;1.67;1.40;;;15.40;99.90;;;;;;5062045;28;20049;-67
2023/07/20 06:33:58;;;;;;;2.17;1.50;;;15.50;99.90;;;;;;5052775;28;20075;-67
2023/07/20 06:36:25;;;;;;;2.67;1.33;;;15.40;99.90;;;;;;5061015;28;20083;-66
2023/07/20 06:38:51;;;;;;;2.03;1.45;;;15.50;99.90;;;;;;5067021;28;20052;-67
2023/07/20 06:41:17;;;;;;;2.70;1.40;;;15.50;99.90;;;;;;5065181;28;20037;-65
2023/07/20 06:43:42;;;;;;;4.50;1.48;;;15.70;99.90;;;;;;5053098;28;20060;-66
2023/07/20 06:46:08;;;;;;;2.33;1.30;;;15.60;99.90;;;;;;5050347;28;20080;-68
2023/07/20 06:48:33;;;;;;;2.38;1.10;;;15.50;99.90;;;;;;5059794;28;20110;-67
2023/07/20 06:50:59;;;;;;;4.32;1.42;;;15.70;99.90;;;;;;5050368;28;20045;-66
2023/07/20 06:53:25;;;;;;;2.10;1.40;;;15.90;99.90;;;;;;5060316;28;20037;-66
2023/07/20 06:55:50;;;;;;;2.20;1.17;;;16.10;99.90;;;;;;5057109;28;20115;-68
2023/07/20 06:58:17;;;;;;;2.30;0.95;;;16.40;99.90;;;;;;5067121;28;20040;-68
2023/07/20 07:00:43;;;;;;;2.10;1.30;;;16.60;99.90;;;;;;5066860;28;20090;-67
2023/07/20 07:03:08;;;;;;;2.85;0.93;;;16.80;99.90;;;;;;5068707;28;20040;-68
2023/07/20 07:05:37;;;;;;;1.80;1.00;;;17.00;99.90;;;;;;5065368;28;20041;-67
2023/07/20 07:08:06;;;;;;;2.65;1.00;;;17.30;99.90;;;;;;5067958;28;20039;-66
2023/07/20 07:10:33;;;;;;;1.58;0.85;;;17.40;99.90;;;;;;5062999;28;20055;-68
2023/07/20 07:12:58;;;;;;;1.50;0.88;;;17.60;99.90;;;;;;5066597;28;20045;-69
2023/07/20 07:15:24;;;;;;;2.22;1.00;;;17.90;99.90;;;;;;5067045;28;20047;-68
2023/07/20 07:17:50;;;;;;;1.20;0.77;;;17.80;99.90;;;;;;5064644;28;20182;-70
2023/07/20 07:20:16;;;;;;;2.47;0.80;;;18.00;99.90;;;;;;5062378;28;20053;-69
2023/07/20 07:22:43;;;;;;;1.63;0.80;;;18.20;99.90;;;;;;5067688;28;20155;-67
2023/07/20 07:25:10;;;;;;;3.40;0.85;;;18.20;99.90;;;;;;5061652;28;20058;-69
2023/07/20 07:27:35;;;;;;;1.75;1.00;;;18.40;99.90;;;;;;5069950;28;20036;-69
2023/07/20 07:30:02;;;;;;;1.65;0.63;;;18.50;99.90;;;;;;5062384;28;20051;-70
2023/07/20 07:32:28;;;;;;;2.47;1.35;;;18.70;99.90;;;;;;5066576;28;20036;-68
2023/07/20 07:34:53;;;;;;;2.33;0.60;;;18.80;99.90;;;;;;5066758;28;20043;-70
2023/07/20 07:37:19;;;;;;;2.92;0.88;;;18.90;99.90;;;;;;5067045;28;20048;-69
2023/07/20 07:39:45;;;;;;;2.05;0.60;;;19.10;99.90;;;;;;5067585;28;20124;-67
2023/07/20 07:42:12;;;;;;;2.38;0.75;;;19.30;99.90;;;;;;5068193;28;20080;-69
2023/07/20 07:44:38;;;;;;;0.90;0.60;;;19.40;99.90;;;;;;5070583;28;20117;-71
2023/07/20 07:47:03;;;;;;;1.95;0.70;;;19.60;99.90;;;;;;5066343;28;20111;-70
2023/07/20 07:49:29;;;;;;;1.80;0.80;;;19.90;99.90;;;;;;5056309;28;20258;-68
2023/07/20 07:51:54;;;;;;;1.90;0.60;;;20.00;99.90;;;;;;5066890;28;20040;-69
2023/07/20 07:54:20;;;;;;;2.35;0.70;;;20.20;99.80;;;;;;5065457;28;20043;-68
2023/07/20 07:56:46;;;;;;;2.47;0.77;;;20.40;97.70;;;;;;5070505;28;20566;-68
2023/07/20 07:59:11;;;;;;;1.63;0.75;;;20.70;96.90;;;;;;5067728;28;20052;-69
2023/07/20 08:01:37;;;;;;;2.97;0.75;;;21.00;95.30;;;;;;5068730;28;20049;-70
2023/07/20 08:04:03;;;;;;;1.70;0.73;;;21.30;94.80;;;;;;5066371;28;20045;-69
2023/07/20 08:06:29;;;;;;;3.20;0.95;;;21.60;93.50;;;;;;5065821;28;20141;-70
2023/07/20 08:08:55;;;;;;;1.20;0.70;;;21.80;90.60;;;;;;5069691;28;20078;-69
2023/07/20 08:11:20;;;;;;;0.98;0.70;;;21.80;88.00;;;;;;5067091;28;20044;-69
2023/07/20 08:13:46;;;;;;;2.58;0.75;;;22.00;84.20;;;;;;5066518;28;20576;-68
2023/07/20 08:16:11;;;;;;;1.30;0.90;;;22.30;83.20;;;;;;5066499;28;20563;-68
2023/07/20 08:18:37;;;;;;;2.20;1.02;;;21.90;83.30;;;;;;5066689;28;20151;-68
2023/07/20 08:21:03;;;;;;;2.50;0.82;;;21.50;82.50;;;;;;5069015;28;20068;-68
2023/07/20 08:23:29;;;;;;;1.50;0.90;;;21.60;79.00;;;;;;5064711;28;20492;-68
2023/07/20 08:25:55;;;;;;;3.53;1.08;;;21.80;76.70;;;;;;5058378;28;20052;-68
2023/07/20 08:28:20;;;;;;;2.92;0.90;;;22.00;76.00;;;;;;5067123;28;20123;-69
2023/07/20 08:30:48;;;;;;;3.15;0.90;;;22.30;74.30;;;;;;5065499;28;20116;-67
2023/07/20 08:33:15;;;;;;;1.88;0.80;;;21.90;73.00;;;;;;5053086;28;20045;-67
2023/07/20 08:35:41;;;;;;;2.45;1.15;;;22.20;72.30;;;;;;5064608;28;20044;-69
2023/07/20 08:38:07;;;;;;;4.40;1.40;;;22.50;71.40;;;;;;5071426;28;20033;-68
2023/07/20 08:40:38;;;;;;;2.20;0.90;;;23.00;69.60;;;;;;5065508;28;20123;-68
2023/07/20 08:43:04;;;;;;;2.63;0.82;;;23.40;67.40;;;;;;5054018;28;20134;-68
2023/07/20 08:45:33;;;;;;;1.15;0.82;;;23.80;66.00;;;;;;5067474;28;20845;-68
2023/07/20 08:48:02;;;;;;;1.10;0.70;;;24.10;64.50;;;;;;5064612;28;20078;-68
2023/07/20 08:50:30;;;;;;;0.95;0.70;;;24.30;61.40;;;;;;5065177;28;20033;-69
2023/07/20 08:52:57;;;;;;;1.05;0.68;;;24.60;59.00;;;;;;5066827;28;20518;-69
2023/07/20 08:55:23;;;;;;;2.38;0.90;;;23.60;59.40;;;;;;5064341;28;20119;-69
2023/07/20 08:57:57;;;;;;;1.35;0.80;;;23.50;60.70;;;;;;5067590;28;20090;-68
2023/07/20 09:00:24;;;;;;;1.35;0.80;;;23.90;59.40;;;;;;5065723;28;20036;-68
2023/07/20 09:02:52;;;;;;;3.15;0.90;;;24.50;59.50;;;;;;5067591;28;20060;-68
2023/07/20 09:05:18;;;;;;;1.25;0.75;;;24.80;57.20;;;;;;5065024;28;20140;-69
2023/07/20 09:07:44;;;;;;;1.42;0.47;;;24.80;56.20;;;;;;5066984;28;20086;-68
2023/07/20 09:10:11;;;;;;;3.92;1.00;;;25.30;54.60;;;;;;5068365;28;20098;-67
2023/07/20 09:12:39;;;;;;;1.52;0.63;;;25.70;51.20;;;;;;5066459;28;20029;-68
2023/07/20 09:15:06;;;;;;;3.05;0.80;;;26.30;51.60;;;;;;5067264;28;20043;-68
2023/07/20 09:17:31;;;;;;;2.60;0.85;;;25.80;51.50;;;;;;5061920;28;20075;-68
2023/07/20 09:19:57;;;;;;;2.25;0.70;;;25.40;52.00;;;;;;5045510;28;20068;-69
2023/07/20 09:22:30;;;;;;;2.75;0.80;;;25.50;51.80;;;;;;5050156;28;20098;-69
2023/07/20 09:24:57;;;;;;;1.90;0.98;;;26.20;47.90;;;;;;5045034;28;20440;-69
2023/07/20 09:27:29;;;;;;;1.30;0.60;;;26.60;47.40;;;;;;5068877;28;20321;-69
2023/07/20 09:29:56;;;;;;;1.33;0.65;;;26.90;46.60;;;;;;5067324;28;20042;-69
2023/07/20 09:32:22;;;;;;;2.40;0.80;;;26.50;46.60;;;;;;5065367;28;20218;-69
2023/07/20 09:34:51;;;;;;;1.00;0.80;;;25.70;46.80;;;;;;5065851;28;20041;-69
2023/07/20 09:37:23;;;;;;;2.90;0.77;;;24.90;48.20;;;;;;5066788;28;20044;-68
2023/07/20 09:39:52;;;;;;;2.10;0.88;;;24.40;50.20;;;;;;5049466;28;20368;-68
2023/07/20 09:42:19;;;;;;;0.80;0.75;;;24.00;49.40;;;;;;5066164;28;20055;-68
2023/07/20 09:44:44;;;;;;;2.85;0.88;;;23.60;50.20;;;;;;5065684;28;20072;-68
2023/07/20 09:47:10;;;;;;;1.10;0.82;;;23.50;50.50;;;;;;5068775;28;20383;-68
2023/07/20 09:49:42;;;;;;;1.33;0.90;;;23.70;50.90;;;;;;5063922;28;20055;-68
2023/07/20 09:52:12;;;;;;;3.28;1.15;;;24.40;51.90;;;;;;5063464;28;20080;-68
2023/07/20 09:54:42;;;;;;;;;;;25.00;49.20;;;;;;5045852;28;20182;-69
2023/07/20 09:57:12;;;;;;;2.47;1.23;;;24.80;50.10;;;;;;5046623;28;20027;-70
2023/07/20 09:59:38;;;;;;;2.85;1.00;;;24.80;49.80;;;;;;5059342;28;20040;-68
2023/07/20 10:02:13;;;;;;;1.92;1.25;;;24.40;49.80;;;;;;5064947;28;20146;-68
2023/07/20 10:04:41;;;;;;;5.22;1.30;;;24.60;49.80;;;;;;5047739;28;20044;-67
2023/07/20 10:07:13;;;;;;;1.45;0.88;;;25.50;47.60;;;;;;5065595;28;20052;-68
2023/07/20 10:09:40;;;;;;;1.13;1.00;;;26.70;45.90;;;;;;5063315;28;20051;-68
2023/07/20 10:12:08;;;;;;;2.50;1.10;;;27.70;43.30;;;;;;5037566;28;20044;-68
2023/07/20 10:14:40;;;;;;;3.28;1.13;;;28.70;40.70;;;;;;5069712;28;20048;-69
2023/07/20 10:17:09;;;;;;;4.05;1.20;;;29.00;39.80;;;;;;5069582;28;20379;-69
2023/07/20 10:19:46;;;;;;;1.13;0.88;;;29.20;39.70;;;;;;5047355;28;20056;-69
2023/07/20 10:22:16;;;;;;;2.22;1.00;;;30.50;37.20;;;;;;5030350;28;20052;-69
2023/07/20 10:24:45;;;;;;;3.38;1.17;;;30.10;37.40;;;;;;5050480;28;20041;-69
2023/07/20 10:27:11;;;;;;;2.17;1.30;;;28.70;37.50;;;;;;5065982;28;20097;-69
2023/07/20 10:29:37;;;;;;;1.92;1.20;;;27.60;39.80;;;;;;5068607;28;20040;-68
2023/07/20 10:32:04;;;;;;;4.05;1.25;;;26.70;42.30;;;;;;5069178;28;20144;-68
2023/07/20 10:34:29;;;;;;;4.45;1.45;;;25.70;44.00;;;;;;5065981;28;20350;-68
2023/07/20 10:36:55;;;;;;;3.05;1.10;;;25.40;44.80;;;;;;5068065;28;20048;-67
2023/07/20 10:39:30;;;;;;;2.65;1.25;;;25.30;45.90;;;;;;5066658;28;20089;-68
2023/07/20 10:42:07;;;;;;;2.55;1.13;;;26.60;46.20;;;;;;5071165;28;20051;-69
2023/07/20 10:44:33;;;;;;;3.78;1.20;;;27.50;44.30;;;;;;5060092;28;20048;-70
2023/07/20 10:47:08;;;;;;;2.95;1.10;;;27.20;43.50;;;;;;5058339;28;20055;-67
2023/07/20 10:49:35;;;;;;;4.05;1.15;;;26.50;45.40;;;;;;5048307;28;20049;-68
2023/07/20 10:52:05;;;;;;;2.75;1.00;;;25.60;46.30;;;;;;5053012;28;20068;-69
2023/07/20 10:54:30;;;;;;;;;;;25.20;47.20;;;;;;5057422;28;20045;-68
2023/07/20 10:56:58;;;;;;;4.32;1.67;;;24.90;50.60;;;;;;5071435;28;20252;-67
2023/07/20 10:59:23;;;;;;;3.05;0.80;;;24.80;46.80;;;;;;5063742;28;20044;-68
2023/07/20 11:01:50;;;;;;;1.92;0.90;;;24.90;45.90;;;;;;5071124;28;20040;-68
2023/07/20 11:04:18;;;;;;;2.28;0.90;;;24.80;46.40;;;;;;5061884;28;20045;-67
2023/07/20 11:06:44;;;;;;;3.33;1.00;;;24.70;46.80;;;;;;5069893;28;20117;-68
2023/07/20 11:09:14;;;;;;;3.17;1.27;;;24.40;47.30;;;;;;5067708;28;20048;-67
2023/07/20 11:11:50;;;;;;;1.77;1.05;;;24.20;48.00;;;;;;5069168;28;20136;-68
2023/07/20 11:14:23;;;;;;;1.60;0.98;;;24.00;47.30;;;;;;5060552;28;20029;-68
2023/07/20 11:16:51;;;;;;;2.75;0.80;;;23.70;48.00;;;;;;5048657;28;20115;-68
2023/07/20 11:19:23;;;;;;;2.85;1.10;;;23.90;47.80;;;;;;5049008;28;20048;-70
2023/07/20 11:21:57;;;;;;;1.50;0.80;;;23.90;48.00;;;;;;5055053;28;20059;-72
2023/07/20 11:24:23;;;;;;;1.73;0.70;;;23.90;47.90;;;;;;5050929;28;20077;-67
2023/07/20 11:26:51;;;;;;;2.15;1.17;;;23.80;46.30;;;;;;5055721;28;20050;-68
2023/07/20 11:29:18;;;;;;;2.17;1.08;;;23.70;46.00;;;;;;5035420;28;20150;-68
2023/07/20 11:31:45;;;;;;;4.15;1.40;;;23.70;46.40;;;;;;5047863;28;20043;-68
2023/07/20 11:34:13;;;;;;;3.05;1.00;;;23.70;45.30;;;;;;5047133;28;20047;-68
2023/07/20 11:36:49;;;;;;;1.63;0.93;;;23.90;45.60;;;;;;5050616;28;20041;-67
2023/07/20 11:39:21;;;;;;;2.00;0.90;;;23.90;44.20;;;;;;5050040;28;20083;-67
2023/07/20 11:41:51;;;;;;;3.97;1.20;;;23.90;44.00;;;;;;5058489;28;21950;-67
2023/07/20 11:44:30;;;;;;;2.65;0.90;;;24.30;44.90;;;;;;5051187;28;20053;-67
2023/07/20 11:47:08;;;;;;;2.60;1.13;;;24.40;46.10;;;;;;5058732;28;20040;-67
2023/07/20 11:49:38;;;;;;;1.75;0.90;;;24.40;46.50;;;;;;5043799;28;20078;-67
2023/07/20 11:52:05;;;;;;;;;;;24.30;45.70;;;;;;5052897;28;20116;-68
2023/07/20 11:54:31;;;;;;;2.22;0.95;;;24.20;47.30;;;;;;5045407;28;20001;-67
2023/07/20 11:57:00;;;;;;;0.68;0.60;;;24.10;47.60;;;;;;5047463;28;20051;-67
2023/07/20 11:59:25;;;;;;;3.35;0.95;;;23.80;48.70;;;;;;5046898;28;20135;-67
2023/07/20 12:01:52;;;;;;;1.63;0.80;;;23.30;49.70;;;;;;5082293;28;20537;-68
2023/07/20 12:04:19;;;;;;;1.88;0.95;;;22.90;50.70;;;;;;5066543;28;20044;-68
2023/07/20 12:06:46;;;;;;;2.38;0.93;;;22.70;51.50;;;;;;5066094;28;20045;-68
2023/07/20 12:09:17;;;;;;;1.67;0.90;;;22.30;52.30;;;;;;5065881;28;20080;-67
2023/07/20 12:11:45;;;;;;;3.17;1.00;;;22.10;53.30;;;;;;5068372;28;20036;-67
2023/07/20 12:14:11;;;;;;;3.53;1.10;;;21.90;53.50;;;;;;5067260;28;20531;-67
2023/07/20 12:16:40;;;;;;;1.85;0.75;;;21.80;54.10;;;;;;5069924;28;20112;-67
2023/07/20 12:19:07;;;;;;;6.50;1.23;;;21.70;54.20;;;;;;5063461;28;20055;-67
2023/07/20 12:21:36;;;;;;;2.05;0.75;;;21.70;54.80;;;;;;5053836;28;20122;-67
2023/07/20 12:24:03;;;;;;;2.78;0.95;;;21.80;55.00;;;;;;5067837;28;20115;-67
2023/07/20 12:26:30;;;;;;;1.70;0.93;;;22.20;54.00;;;;;;5066878;28;20079;-67
2023/07/20 12:28:56;;;;;;;4.45;0.90;;;22.70;52.30;;;;;;5068920;28;20072;-67
2023/07/20 12:31:23;;;;;;;1.65;0.80;;;23.60;49.20;;;;;;5066640;28;20044;-67
2023/07/20 12:33:49;;;;;;;3.05;1.00;;;24.50;46.70;;;;;;5065436;28;20071;-67
2023/07/20 12:36:15;;;;;;;3.83;0.85;;;24.50;46.10;;;;;;5065370;28;20170;-67
2023/07/20 12:38:41;;;;;;;4.15;1.20;;;24.30;45.70;;;;;;5065073;28;20475;-67
2023/07/20 12:41:12;;;;;;;2.78;1.20;;;24.20;45.20;;;;;;5068649;28;20129;-67
2023/07/20 12:43:38;;;;;;;2.47;0.90;;;23.80;45.00;;;;;;5060237;28;20159;-67
2023/07/20 12:46:04;;;;;;;3.25;1.38;;;23.50;45.90;;;;;;5067720;28;20628;-67
2023/07/20 12:48:30;;;;;;;3.72;1.10;;;23.40;47.30;;;;;;5066293;28;20112;-67